Milford, MA (01757)

11:12 PM EST die 27o January, anno 2015 (GMT -0500)
Congress St | Change Station
CLOSE
Current Station
Personal Weather Stations
Location: Milford, MA
Elevation: 394 ft
Nearby Weather Stations

Elev 394 ft 42.15 °N, 71.53 °W | Updated 3 seconds ago

Aequaliter Nubila
Aequaliter Nubila
14.0 °F
Feels Like -1 °F
N
13.5
Ventus Variabilis Ventus from Inter Aquilonem et Zephyrus
Gusts 19.6 mph

Hodie
High -- | Low -- °F
--% Chance of Precip.
Yesterday
High -- | Low -- °F
Precip. -- in
7:04 AM 4:53 PM
First Quarter, 60% visible
Pressio 29.63 in
Visibilitas 3.0 milia passuum
Clouds Plerumque Nubila 1900 ft
Aequaliter Nubila 2400 ft
Frigus Venti -1 °F
Frigus in quo Ros apparet 11 °F
Umor 87%
Rainfall 0.00 in
Snow Depth Not available.
UV 0.0 out of 12
Pollen .10 out of 12
Air Quality Not available.
Flu Activity Not available.
METAR KSFZ 280355Z 32008G15KT 3SM BKN019 OVC024 M11/M17 A2963 RMK AO1

More Conditions Fewer Conditions

Pressio 29.63 in
Visibilitas 3.0 milia passuum
Clouds Plerumque Nubila 1900 ft
Aequaliter Nubila 2400 ft
Frigus Venti -1 °F
Frigus in quo Ros apparet 11 °F
Umor 87%
Rainfall 0.00 in
Snow Depth Not available.
UV 0.0 out of 12
Pollen .10 out of 12
Air Quality Not available.
Flu Activity Not available.
METAR KSFZ 280355Z 32008G15KT 3SM BKN019 OVC024 M11/M17 A2963 RMK AO1

More Conditions Fewer Conditions

10-Day Weather Forecast

Almanac

Astronomy

Jan. 27, 2015 Rise Set
Actual Time
Civil Twilight
Nautical Twilight
Astronomical Twilight
Moon
Length Of Visible Light
Length of Day
Tomorrow will be .
, % of the Moon is Illuminated

Today's Extremes

State Highs State Lows

Community

WunderPhotos

Upload Photos

1,791,086 photos uploaded!

WunderBlogs® & News

Nearby

Air Quality

  Air Quality AQ Index Pollutant
Not available.

Snow Depth

Station Depth Elevation

Earthquake Activity

City Distance Mag. Time & Date
Minimum magnitude displayed is 2.5.

Coastal Water Temperatures

Locus Calor

Nearby Weather Stations